Time;durP1;ratioP1;P1;durP2;ratioP2;P2;SDS_P1;SDS_P2;PMS_P1;PMS_P2;Temp;Humidity;BMP_temperature;BMP_pressure;BME280_temperature;BME280_humidity;BME280_pressure;Samples;Min_cycle;Max_cycle;Signal;HPM_P1;HPM_P2
2021/10/31 00:01:52;;;;;;;26.85;18.23;;;10.60;85.10;;;;;;5071521;28;20035;-38
2021/10/31 00:04:17;;;;;;;25.90;18.15;;;10.60;85.80;;;;;;5072070;28;20082;-37
2021/10/31 00:06:43;;;;;;;27.92;17.67;;;10.60;85.70;;;;;;5072471;28;20051;-37
2021/10/31 00:09:08;;;;;;;29.50;18.48;;;10.60;86.30;;;;;;5072419;28;20479;-37
2021/10/31 00:11:35;;;;;;;28.48;19.45;;;10.60;85.80;;;;;;5068793;28;20025;-37
2021/10/31 00:14:01;;;;;;;28.55;18.15;;;10.60;86.00;;;;;;5053187;28;20108;-38
2021/10/31 00:16:27;;;;;;;29.17;16.70;;;10.60;85.90;;;;;;5052986;28;20025;-37
2021/10/31 00:18:52;;;;;;;28.52;17.95;;;10.60;86.50;;;;;;5051681;28;20161;-37
2021/10/31 00:21:22;;;;;;;24.17;16.88;;;10.60;86.80;;;;;;5053074;28;20104;-38
2021/10/31 00:23:47;;;;;;;27.63;18.95;;;10.60;87.20;;;;;;5053074;28;20049;-38
2021/10/31 00:26:13;;;;;;;26.90;17.17;;;10.50;87.80;;;;;;5053081;28;20052;-38
2021/10/31 00:28:38;;;;;;;24.40;16.52;;;10.50;88.00;;;;;;5050718;28;20025;-37
2021/10/31 00:31:04;;;;;;;30.83;18.15;;;10.50;88.40;;;;;;5052619;28;20045;-38
2021/10/31 00:33:29;;;;;;;22.40;15.43;;;10.50;89.40;;;;;;5051468;28;20487;-37
2021/10/31 00:35:55;;;;;;;23.92;15.77;;;10.40;89.10;;;;;;5052863;28;20021;-37
2021/10/31 00:38:20;;;;;;;23.70;16.15;;;10.40;89.90;;;;;;5052790;28;20357;-38
2021/10/31 00:40:46;;;;;;;26.73;16.90;;;10.40;90.30;;;;;;5052759;28;20033;-37
2021/10/31 00:43:12;;;;;;;26.25;16.52;;;10.40;90.40;;;;;;5052818;28;20025;-38
2021/10/31 00:45:37;;;;;;;21.23;14.05;;;10.40;90.50;;;;;;5052412;28;20035;-37
2021/10/31 00:48:03;;;;;;;22.65;15.95;;;10.30;90.50;;;;;;5051504;28;20048;-38
2021/10/31 00:50:29;;;;;;;25.80;16.80;;;10.30;91.20;;;;;;5052526;28;20020;-36
2021/10/31 00:52:56;;;;;;;25.02;17.17;;;10.30;91.60;;;;;;5052646;28;20052;-37
2021/10/31 00:55:22;;;;;;;22.77;15.50;;;10.30;91.70;;;;;;5052625;28;20029;-37
2021/10/31 00:57:47;;;;;;;22.00;15.75;;;10.30;91.70;;;;;;5052530;28;20035;-38
2021/10/31 01:00:13;;;;;;;21.88;14.07;;;10.30;91.70;;;;;;5052432;28;20037;-37
2021/10/31 01:02:39;;;;;;;24.15;15.75;;;10.20;92.30;;;;;;5051208;28;20029;-38
2021/10/31 01:05:13;;;;;;;26.55;17.60;;;10.20;92.60;;;;;;5052462;28;20025;-37
2021/10/31 01:07:59;;;;;;;23.33;15.70;;;10.20;92.90;;;;;;5052389;28;20014;-38
2021/10/31 01:10:43;;;;;;;;;;;10.20;93.10;;;;;;5052876;28;20013;-37
2021/10/31 01:13:26;;;;;;;22.20;15.23;;;10.10;94.90;;;;;;5052470;28;19927;-37
2021/10/31 01:15:59;;;;;;;25.65;16.88;;;10.10;94.50;;;;;;5052338;28;20043;-38
2021/10/31 01:19:00;;;;;;;21.35;15.13;;;10.10;95.50;;;;;;5051114;28;20078;-37
2021/10/31 01:22:06;;;;;;;19.65;14.25;;;10.20;95.30;;;;;;5052187;28;20033;-37
2021/10/31 01:25:02;;;;;;;24.88;16.77;;;10.20;95.80;;;;;;5052207;28;20329;-38
2021/10/31 01:28:09;;;;;;;21.15;13.45;;;10.30;95.30;;;;;;5051891;28;20361;-37
2021/10/31 01:30:38;;;;;;;23.20;15.05;;;10.40;95.30;;;;;;5051964;28;20035;-38
2021/10/31 01:33:51;;;;;;;27.80;15.05;;;10.40;94.20;;;;;;5051124;28;20036;-37
2021/10/31 01:36:54;;;;;;;22.75;15.00;;;10.50;94.70;;;;;;5046777;28;20038;-37
2021/10/31 01:39:50;;;;;;;20.63;13.32;;;10.60;94.40;;;;;;5053661;28;20037;-38
2021/10/31 01:42:33;;;;;;;21.55;13.90;;;10.60;93.80;;;;;;5056148;28;20104;-38
2021/10/31 01:45:13;;;;;;;22.35;13.35;;;10.70;93.40;;;;;;5056020;28;20025;-38
2021/10/31 01:47:49;;;;;;;20.85;13.93;;;10.70;93.70;;;;;;5053215;28;20021;-38
2021/10/31 01:50:32;;;;;;;20.25;14.25;;;10.70;93.70;;;;;;5055674;28;20021;-38
2021/10/31 01:53:15;;;;;;;20.17;13.02;;;10.70;93.30;;;;;;5055982;28;20023;-37
2021/10/31 01:55:45;;;;;;;21.50;13.57;;;10.70;93.60;;;;;;5055793;28;20040;-38
2021/10/31 01:58:14;;;;;;;20.70;12.88;;;10.80;93.30;;;;;;5055828;28;20353;-38
2021/10/31 02:00:43;;;;;;;18.92;11.90;;;10.70;93.20;;;;;;5055560;28;20099;-37
2021/10/31 02:03:11;;;;;;;21.88;12.15;;;10.70;93.30;;;;;;5054476;28;20031;-37
2021/10/31 02:05:39;;;;;;;18.65;12.57;;;10.70;93.80;;;;;;5055533;28;20082;-37
2021/10/31 02:08:08;;;;;;;23.73;15.35;;;10.70;93.50;;;;;;5055663;28;20021;-38
2021/10/31 02:10:34;;;;;;;20.17;12.50;;;10.70;93.70;;;;;;5055458;28;20017;-38
2021/10/31 02:13:02;;;;;;;21.65;12.48;;;10.70;93.70;;;;;;5055610;28;20396;-38
2021/10/31 02:15:29;;;;;;;21.33;13.57;;;10.60;93.90;;;;;;5055352;28;20447;-37
2021/10/31 02:17:55;;;;;;;20.08;12.98;;;10.60;93.90;;;;;;5054121;28;20029;-37
2021/10/31 02:20:23;;;;;;;19.58;13.00;;;10.50;94.20;;;;;;5055536;28;20159;-38
2021/10/31 02:22:56;;;;;;;18.52;13.15;;;10.50;94.70;;;;;;5055289;28;20527;-37
2021/10/31 02:25:24;;;;;;;19.75;11.85;;;10.40;94.60;;;;;;5055039;28;20037;-38
2021/10/31 02:27:50;;;;;;;20.83;13.27;;;10.40;95.10;;;;;;5055005;28;20492;-37
2021/10/31 02:30:16;;;;;;;17.75;12.43;;;10.30;95.90;;;;;;5055298;28;20056;-37
2021/10/31 02:32:41;;;;;;;17.45;11.30;;;10.30;95.80;;;;;;5053704;28;20048;-37
2021/10/31 02:35:11;;;;;;;22.10;13.63;;;10.20;95.80;;;;;;5055155;28;20464;-37
2021/10/31 02:37:37;;;;;;;18.23;11.38;;;10.20;96.70;;;;;;5054959;28;20040;-37
2021/10/31 02:40:05;;;;;;;16.98;11.73;;;10.10;96.40;;;;;;5054828;28;20420;-38
2021/10/31 02:42:31;;;;;;;19.00;12.40;;;10.00;96.70;;;;;;5050826;28;20028;-37
2021/10/31 02:44:56;;;;;;;21.17;11.15;;;10.00;97.30;;;;;;5054765;28;20033;-37
2021/10/31 02:47:31;;;;;;;20.38;12.25;;;10.00;97.30;;;;;;5053506;28;20060;-37
2021/10/31 02:49:57;;;;;;;19.00;11.90;;;9.90;97.60;;;;;;5054291;28;20052;-37
2021/10/31 02:52:39;;;;;;;19.73;12.95;;;9.80;98.80;;;;;;5054728;28;20409;-37
2021/10/31 02:56:09;;;;;;;25.50;12.45;;;9.80;99.80;;;;;;5054565;28;20029;-38
2021/10/31 02:58:40;;;;;;;18.88;11.52;;;9.80;99.80;;;;;;4987208;28;20045;-37
2021/10/31 03:01:06;;;;;;;19.20;11.73;;;9.70;99.70;;;;;;5054661;28;20116;-38
2021/10/31 03:03:33;;;;;;;17.75;11.40;;;9.70;99.90;;;;;;5053232;28;20036;-38
2021/10/31 03:06:00;;;;;;;17.75;10.55;;;9.70;99.60;;;;;;5054424;28;20025;-37
2021/10/31 03:08:27;;;;;;;20.33;12.02;;;9.70;99.70;;;;;;5054425;28;20021;-38
2021/10/31 03:11:00;;;;;;;14.20;10.05;;;9.70;99.50;;;;;;5054335;28;20028;-37
2021/10/31 03:13:27;;;;;;;19.52;11.65;;;9.70;99.90;;;;;;5054330;28;20032;-37
2021/10/31 03:15:53;;;;;;;17.23;11.65;;;9.70;99.90;;;;;;5054137;28;20080;-37
2021/10/31 03:18:19;;;;;;;16.75;12.00;;;9.70;99.90;;;;;;5052926;28;20369;-37
2021/10/31 03:20:45;;;;;;;16.80;11.32;;;9.70;99.90;;;;;;5054139;28;20035;-37
2021/10/31 03:23:10;;;;;;;19.48;12.55;;;9.70;99.90;;;;;;5054200;28;20033;-37
2021/10/31 03:25:36;;;;;;;20.67;13.63;;;9.70;99.90;;;;;;5054075;28;20037;-38
2021/10/31 03:28:02;;;;;;;16.13;11.07;;;9.70;99.90;;;;;;5054079;28;20483;-37
2021/10/31 03:30:28;;;;;;;17.95;11.57;;;9.80;99.90;;;;;;5053924;28;20028;-38
2021/10/31 03:32:54;;;;;;;18.55;12.63;;;9.80;99.90;;;;;;5052538;28;20037;-37
2021/10/31 03:35:20;;;;;;;16.55;11.13;;;9.90;99.90;;;;;;5054032;28;20075;-38
2021/10/31 03:37:45;;;;;;;19.10;12.80;;;9.90;99.90;;;;;;5053920;28;20388;-38
2021/10/31 03:40:11;;;;;;;22.10;12.63;;;10.00;99.90;;;;;;5053905;28;20112;-37
2021/10/31 03:42:37;;;;;;;17.35;12.48;;;10.00;99.90;;;;;;5053851;28;20021;-38
2021/10/31 03:45:06;;;;;;;18.63;13.30;;;10.10;99.90;;;;;;5053515;28;20029;-38
2021/10/31 03:47:33;;;;;;;21.60;14.30;;;10.20;99.90;;;;;;5052774;28;20109;-38
2021/10/31 03:49:59;;;;;;;17.55;13.52;;;10.30;99.90;;;;;;5053605;28;20392;-38
2021/10/31 03:52:24;;;;;;;20.10;13.10;;;10.40;99.90;;;;;;5053647;28;20022;-38
2021/10/31 03:54:50;;;;;;;16.05;11.82;;;10.50;99.90;;;;;;5053524;28;20060;-37
2021/10/31 03:57:16;;;;;;;17.80;12.10;;;10.50;99.90;;;;;;5053640;28;20052;-37
2021/10/31 03:59:41;;;;;;;22.15;12.93;;;10.60;99.90;;;;;;5053355;28;20358;-37
2021/10/31 04:02:07;;;;;;;19.98;13.35;;;10.70;99.90;;;;;;5052208;28;20419;-37
2021/10/31 04:04:32;;;;;;;18.67;11.45;;;10.70;99.90;;;;;;5053352;28;20076;-38
2021/10/31 04:06:58;;;;;;;22.40;14.15;;;10.70;99.90;;;;;;5053363;28;20117;-37
2021/10/31 04:09:24;;;;;;;19.45;12.75;;;10.60;99.90;;;;;;5053427;28;20044;-38
2021/10/31 04:11:49;;;;;;;18.25;13.60;;;10.60;99.90;;;;;;5053231;28;20028;-38
2021/10/31 04:14:15;;;;;;;16.83;12.20;;;10.70;99.90;;;;;;5053167;28;20060;-37
2021/10/31 04:16:40;;;;;;;19.77;12.85;;;10.70;99.90;;;;;;5053175;28;20063;-38
2021/10/31 04:19:06;;;;;;;22.30;13.02;;;10.70;99.90;;;;;;5051909;28;20025;-37
2021/10/31 04:21:31;;;;;;;17.73;12.32;;;10.70;99.90;;;;;;5053129;28;20480;-38
2021/10/31 04:23:57;;;;;;;17.92;12.25;;;10.80;99.90;;;;;;5052944;28;20025;-37
2021/10/31 04:26:22;;;;;;;21.95;13.70;;;10.80;99.90;;;;;;5053062;28;20498;-37
2021/10/31 04:28:48;;;;;;;20.60;13.38;;;10.80;99.90;;;;;;5053044;28;20096;-38
2021/10/31 04:31:13;;;;;;;18.33;12.75;;;10.90;99.90;;;;;;5052859;28;20049;-38
2021/10/31 04:33:39;;;;;;;22.05;15.43;;;10.90;99.90;;;;;;5051720;28;20033;-37
2021/10/31 04:36:05;;;;;;;23.08;15.65;;;10.90;99.90;;;;;;5052842;28;20041;-38
2021/10/31 04:38:32;;;;;;;23.20;14.77;;;11.00;99.90;;;;;;5052926;28;20396;-37
2021/10/31 04:40:58;;;;;;;21.25;15.68;;;11.00;99.90;;;;;;5052799;28;20054;-37
2021/10/31 04:43:25;;;;;;;21.42;15.05;;;10.90;99.90;;;;;;5052945;28;20567;-37
2021/10/31 04:45:51;;;;;;;21.52;14.38;;;10.90;99.90;;;;;;5052603;28;20483;-38
2021/10/31 04:48:19;;;;;;;19.00;13.55;;;10.90;99.90;;;;;;5051444;28;20032;-37
2021/10/31 04:50:44;;;;;;;18.65;12.85;;;10.90;99.90;;;;;;5052673;28;20142;-37
2021/10/31 04:53:10;;;;;;;18.67;13.32;;;10.80;99.90;;;;;;5052539;28;20031;-38
2021/10/31 04:55:40;;;;;;;19.83;14.23;;;10.70;99.90;;;;;;5052635;28;20032;-38
2021/10/31 04:58:06;;;;;;;22.50;12.68;;;10.60;99.90;;;;;;5052093;28;20017;-38
2021/10/31 05:00:32;;;;;;;20.65;13.50;;;10.50;99.90;;;;;;5052611;28;20032;-37
2021/10/31 05:02:58;;;;;;;20.45;12.60;;;10.50;99.90;;;;;;5051212;28;20492;-38
2021/10/31 05:05:23;;;;;;;24.85;15.38;;;10.40;99.90;;;;;;5052506;28;20036;-38
2021/10/31 05:07:51;;;;;;;26.42;17.40;;;10.30;99.90;;;;;;5052432;28;20048;-38
2021/10/31 05:10:17;;;;;;;21.50;14.50;;;10.30;99.90;;;;;;5052568;28;20017;-37
2021/10/31 05:12:43;;;;;;;25.92;16.17;;;10.30;99.90;;;;;;5052398;28;20037;-38
2021/10/31 05:15:09;;;;;;;24.02;16.50;;;10.20;99.90;;;;;;5058927;28;20029;-37
2021/10/31 05:17:35;;;;;;;26.13;16.90;;;10.20;99.90;;;;;;5073940;28;20108;-38
2021/10/31 05:20:01;;;;;;;23.40;15.48;;;10.20;99.90;;;;;;5075070;28;20112;-38
2021/10/31 05:22:26;;;;;;;28.38;17.25;;;10.20;99.90;;;;;;5075200;28;20379;-37
2021/10/31 05:24:52;;;;;;;25.13;15.70;;;10.10;99.90;;;;;;5075076;28;20028;-38
2021/10/31 05:27:18;;;;;;;22.80;15.40;;;10.10;99.90;;;;;;5074713;28;20020;-38
2021/10/31 05:29:43;;;;;;;24.48;16.08;;;10.10;99.90;;;;;;5074912;28;20029;-37
2021/10/31 05:32:09;;;;;;;25.70;15.77;;;10.00;99.90;;;;;;5073481;28;20048;-37
2021/10/31 05:34:34;;;;;;;24.15;15.48;;;10.00;99.90;;;;;;5074958;28;20032;-38
2021/10/31 05:37:00;;;;;;;22.98;14.80;;;10.00;99.90;;;;;;5073905;28;20503;-37
2021/10/31 05:39:25;;;;;;;26.90;17.02;;;10.00;99.90;;;;;;5074581;28;20028;-37
2021/10/31 05:41:51;;;;;;;25.23;16.00;;;10.00;99.90;;;;;;5074635;28;20405;-37
2021/10/31 05:44:16;;;;;;;23.90;15.18;;;10.00;99.90;;;;;;5074606;28;20039;-37
2021/10/31 05:46:42;;;;;;;20.27;14.20;;;9.90;99.90;;;;;;5074256;28;20044;-37
2021/10/31 05:49:08;;;;;;;22.50;14.70;;;10.00;99.90;;;;;;5074174;28;20103;-38
2021/10/31 05:51:34;;;;;;;21.88;14.48;;;10.00;99.90;;;;;;5074809;28;20095;-37
2021/10/31 05:54:00;;;;;;;22.30;14.45;;;10.00;99.90;;;;;;5074478;28;20178;-38
2021/10/31 05:56:26;;;;;;;21.25;14.70;;;10.10;99.90;;;;;;5074318;28;20021;-37
2021/10/31 05:58:52;;;;;;;21.02;13.90;;;10.20;99.90;;;;;;5073711;28;20633;-37
2021/10/31 06:01:17;;;;;;;20.77;12.65;;;10.20;99.90;;;;;;5074315;28;20029;-37
2021/10/31 06:03:43;;;;;;;26.10;17.38;;;10.30;99.90;;;;;;5072920;28;20037;-37
2021/10/31 06:06:08;;;;;;;23.33;15.65;;;10.30;99.90;;;;;;5074158;28;20165;-37
2021/10/31 06:08:33;;;;;;;22.35;15.55;;;10.40;99.90;;;;;;5074341;28;20063;-37
2021/10/31 06:10:59;;;;;;;19.20;13.40;;;10.40;99.90;;;;;;5074034;28;20422;-38
2021/10/31 06:13:25;;;;;;;20.90;14.20;;;10.40;99.90;;;;;;5074213;28;20056;-37
2021/10/31 06:15:50;;;;;;;22.88;14.20;;;10.50;99.90;;;;;;5072974;28;20519;-38
2021/10/31 06:18:17;;;;;;;16.63;12.38;;;10.60;99.90;;;;;;5072739;28;20040;-37
2021/10/31 06:20:44;;;;;;;20.20;13.18;;;10.60;99.90;;;;;;5074069;28;20081;-37
2021/10/31 06:23:10;;;;;;;18.80;12.30;;;10.70;99.90;;;;;;5073850;28;20070;-37
2021/10/31 06:25:35;;;;;;;18.83;13.10;;;10.70;99.90;;;;;;5073814;28;20060;-38
2021/10/31 06:28:01;;;;;;;21.27;14.45;;;10.80;99.90;;;;;;5073730;28;20475;-37
2021/10/31 06:30:26;;;;;;;20.17;13.60;;;10.80;99.90;;;;;;5073933;28;20025;-38
2021/10/31 06:32:52;;;;;;;19.42;13.65;;;10.80;99.90;;;;;;5072494;28;20048;-37
2021/10/31 06:35:17;;;;;;;20.88;14.00;;;10.80;99.90;;;;;;5073595;28;20052;-37
2021/10/31 06:37:43;;;;;;;20.73;14.40;;;10.70;99.90;;;;;;5072867;28;20515;-37
2021/10/31 06:40:09;;;;;;;19.75;13.00;;;10.70;99.90;;;;;;5073502;28;20029;-38
2021/10/31 06:42:35;;;;;;;21.10;14.40;;;10.70;99.90;;;;;;5073696;28;20016;-37
2021/10/31 06:45:01;;;;;;;23.45;15.75;;;10.70;99.90;;;;;;5073275;28;20396;-37
2021/10/31 06:47:27;;;;;;;22.95;15.27;;;10.70;99.90;;;;;;5072318;28;20027;-38
2021/10/31 06:49:52;;;;;;;19.40;12.93;;;10.70;99.90;;;;;;5073460;28;20020;-37
2021/10/31 06:52:18;;;;;;;21.17;14.70;;;10.70;99.90;;;;;;5072587;28;20025;-37
2021/10/31 06:54:44;;;;;;;21.20;14.65;;;10.80;99.90;;;;;;5073495;28;20043;-37
2021/10/31 06:57:10;;;;;;;22.38;14.30;;;10.80;99.90;;;;;;5073209;28;20028;-38
2021/10/31 06:59:35;;;;;;;22.80;15.30;;;10.80;99.90;;;;;;5073355;28;20040;-37
2021/10/31 07:02:01;;;;;;;21.17;13.40;;;10.80;99.90;;;;;;5072306;28;20478;-37
2021/10/31 07:04:29;;;;;;;19.65;13.35;;;10.80;99.90;;;;;;5073748;28;20039;-38
2021/10/31 07:06:55;;;;;;;19.42;12.70;;;10.90;99.90;;;;;;5074878;28;20455;-37
2021/10/31 07:09:20;;;;;;;21.73;14.07;;;10.90;99.90;;;;;;5074385;28;20036;-38
2021/10/31 07:11:46;;;;;;;20.80;13.30;;;11.00;99.90;;;;;;5073147;28;20017;-37
2021/10/31 07:14:11;;;;;;;20.73;13.95;;;11.00;99.90;;;;;;5074369;28;20078;-38
2021/10/31 07:16:37;;;;;;;22.13;13.52;;;11.10;99.90;;;;;;5074517;28;20499;-38
2021/10/31 07:19:03;;;;;;;22.30;15.18;;;11.10;99.90;;;;;;5073309;28;20073;-38
2021/10/31 07:21:29;;;;;;;22.17;14.45;;;11.20;99.90;;;;;;5074427;28;20025;-38
2021/10/31 07:23:55;;;;;;;20.48;14.20;;;11.30;99.90;;;;;;5074197;28;20024;-38
2021/10/31 07:26:20;;;;;;;22.52;14.85;;;11.40;99.90;;;;;;5073980;28;20568;-37
2021/10/31 07:28:46;;;;;;;22.52;14.63;;;11.40;99.90;;;;;;5074211;28;20100;-38
2021/10/31 07:31:13;;;;;;;18.80;14.55;;;11.50;99.90;;;;;;5073869;28;20045;-38
2021/10/31 07:33:39;;;;;;;20.83;14.50;;;11.60;99.90;;;;;;5073046;28;20024;-38
2021/10/31 07:36:05;;;;;;;18.30;13.30;;;11.70;99.90;;;;;;5073761;28;20036;-39
2021/10/31 07:38:31;;;;;;;21.00;13.68;;;11.70;99.90;;;;;;5073651;28;20028;-38
2021/10/31 07:40:57;;;;;;;19.95;14.00;;;11.80;99.90;;;;;;5073736;28;20029;-37
2021/10/31 07:43:23;;;;;;;25.25;13.70;;;12.00;99.90;;;;;;5073729;28;20029;-38
2021/10/31 07:45:48;;;;;;;21.25;15.10;;;12.20;99.90;;;;;;5073771;28;20037;-37
2021/10/31 07:48:14;;;;;;;20.63;14.40;;;12.30;99.90;;;;;;5072427;28;20028;-38
2021/10/31 07:50:40;;;;;;;19.35;13.88;;;12.60;99.90;;;;;;5073716;28;20066;-38
2021/10/31 07:53:09;;;;;;;21.20;13.75;;;13.00;99.90;;;;;;5073539;28;20483;-38
2021/10/31 07:55:36;;;;;;;17.40;12.27;;;13.40;98.60;;;;;;5073515;28;20036;-38
2021/10/31 07:58:04;;;;;;;20.70;14.23;;;13.70;99.90;;;;;;5073598;28;20025;-38
2021/10/31 08:00:31;;;;;;;18.23;12.43;;;14.00;99.70;;;;;;5073508;28;20025;-38
2021/10/31 08:02:57;;;;;;;20.02;14.52;;;14.30;93.60;;;;;;5072275;28;20048;-38
2021/10/31 08:05:24;;;;;;;23.30;15.95;;;14.60;94.20;;;;;;5073327;28;20078;-38
2021/10/31 08:07:50;;;;;;;16.80;12.10;;;14.70;92.10;;;;;;5073370;28;20045;-38
2021/10/31 08:10:16;;;;;;;14.50;12.10;;;14.80;96.20;;;;;;5073266;28;20021;-38
2021/10/31 08:12:41;;;;;;;15.68;13.68;;;15.00;93.90;;;;;;5073351;28;20387;-38
2021/10/31 08:15:07;;;;;;;17.42;12.35;;;15.00;91.20;;;;;;5073193;28;20081;-37
2021/10/31 08:17:33;;;;;;;16.13;12.23;;;15.10;93.70;;;;;;5071900;28;20028;-38
2021/10/31 08:19:58;;;;;;;16.73;12.88;;;15.20;92.70;;;;;;5073230;28;20183;-38
2021/10/31 08:22:24;;;;;;;16.27;12.43;;;15.30;91.90;;;;;;5072996;28;20032;-38
2021/10/31 08:24:49;;;;;;;21.05;14.82;;;15.50;92.60;;;;;;5072990;28;20041;-38
2021/10/31 08:27:15;;;;;;;19.08;13.73;;;15.40;90.40;;;;;;5072984;28;20024;-38
2021/10/31 08:29:42;;;;;;;15.10;12.23;;;15.50;86.20;;;;;;5073061;28;20094;-38
2021/10/31 08:32:08;;;;;;;21.27;14.73;;;15.50;90.00;;;;;;5071554;28;20041;-38
2021/10/31 08:34:34;;;;;;;18.50;14.30;;;15.50;88.00;;;;;;5072974;28;20030;-38
2021/10/31 08:36:59;;;;;;;17.88;13.13;;;15.60;86.30;;;;;;5072899;28;20396;-38
2021/10/31 08:39:25;;;;;;;16.60;12.07;;;15.60;84.10;;;;;;5072743;28;20033;-37
2021/10/31 08:41:51;;;;;;;16.23;11.50;;;15.80;85.20;;;;;;5072885;28;20515;-38
2021/10/31 08:44:16;;;;;;;15.80;11.05;;;15.90;86.30;;;;;;5058165;28;20040;-38
2021/10/31 08:46:42;;;;;;;16.98;13.32;;;16.00;87.30;;;;;;5051340;28;20026;-38
2021/10/31 08:49:09;;;;;;;16.25;12.77;;;16.00;85.00;;;;;;5051729;28;20025;-38
2021/10/31 08:51:34;;;;;;;18.77;14.73;;;16.10;81.50;;;;;;5052380;28;20155;-38
2021/10/31 08:54:00;;;;;;;20.90;14.68;;;16.00;81.40;;;;;;5052368;28;20021;-38
2021/10/31 08:56:27;;;;;;;21.88;16.73;;;16.10;79.70;;;;;;5052226;28;20025;-38
2021/10/31 08:58:53;;;;;;;15.80;12.18;;;16.10;72.30;;;;;;5052489;28;20546;-38
2021/10/31 09:01:18;;;;;;;17.08;12.18;;;16.20;80.40;;;;;;5052317;28;20049;-38
2021/10/31 09:03:45;;;;;;;18.42;13.23;;;16.30;80.60;;;;;;5051175;28;20028;-38
2021/10/31 09:06:11;;;;;;;22.17;14.35;;;16.40;73.50;;;;;;5052131;28;20041;-38
2021/10/31 09:08:40;;;;;;;20.40;14.10;;;16.40;76.80;;;;;;5051639;28;20448;-38
2021/10/31 09:11:06;;;;;;;18.13;13.10;;;16.50;75.80;;;;;;5052005;28;20440;-41
2021/10/31 09:13:31;;;;;;;22.42;13.63;;;16.50;75.10;;;;;;5051974;28;20055;-38
2021/10/31 09:15:57;;;;;;;20.52;13.73;;;16.60;72.20;;;;;;5052459;28;20483;-38
2021/10/31 09:18:24;;;;;;;21.15;14.50;;;16.60;74.20;;;;;;5050902;28;20040;-38
2021/10/31 09:20:50;;;;;;;21.85;14.48;;;16.70;72.50;;;;;;5052148;28;20356;-38
2021/10/31 09:23:16;;;;;;;17.33;13.32;;;16.70;73.00;;;;;;5051950;28;20029;-38
2021/10/31 09:25:41;;;;;;;19.50;12.98;;;16.80;71.90;;;;;;5052119;28;20070;-38
2021/10/31 09:28:07;;;;;;;16.20;11.93;;;16.90;72.50;;;;;;5052153;28;20021;-37
2021/10/31 09:30:37;;;;;;;16.33;12.48;;;16.90;72.20;;;;;;5052005;28;20029;-38
2021/10/31 09:33:02;;;;;;;14.63;10.80;;;16.90;70.70;;;;;;5051106;28;20040;-38
2021/10/31 09:35:30;;;;;;;13.57;10.40;;;17.00;72.10;;;;;;5051832;28;20064;-38
2021/10/31 09:38:05;;;;;;;13.20;9.88;;;17.10;71.80;;;;;;5052012;28;20035;-38
2021/10/31 09:40:33;;;;;;;11.53;9.63;;;17.10;72.20;;;;;;5051955;28;20068;-37
2021/10/31 09:43:01;;;;;;;12.90;10.18;;;17.20;71.60;;;;;;5052298;28;20025;-38
2021/10/31 09:45:27;;;;;;;14.27;10.07;;;17.20;71.80;;;;;;5051743;28;20025;-38
2021/10/31 09:47:54;;;;;;;12.90;9.63;;;17.20;71.70;;;;;;5050752;28;20036;-38
2021/10/31 09:50:20;;;;;;;12.68;8.73;;;17.30;72.10;;;;;;5051785;28;20428;-38
2021/10/31 09:52:46;;;;;;;11.10;8.68;;;17.30;72.80;;;;;;5051915;28;20066;-38
2021/10/31 09:55:11;;;;;;;10.65;7.97;;;17.30;72.50;;;;;;5051854;28;20029;-38
2021/10/31 09:57:37;;;;;;;14.27;9.55;;;17.40;72.80;;;;;;5051679;28;20056;-38
2021/10/31 10:00:04;;;;;;;15.50;10.73;;;17.40;72.80;;;;;;5052858;28;20028;-38
2021/10/31 10:02:48;;;;;;;12.20;9.68;;;17.40;70.40;;;;;;5054190;28;20035;-39
2021/10/31 10:05:24;;;;;;;11.80;9.40;;;17.30;71.60;;;;;;5055554;28;20024;-38
2021/10/31 10:08:17;;;;;;;11.68;9.18;;;17.30;72.10;;;;;;5055682;28;20143;-38
2021/10/31 10:10:51;;;;;;;14.13;9.88;;;17.30;71.90;;;;;;5055568;28;20033;-38
2021/10/31 10:13:26;;;;;;;12.68;9.10;;;17.20;72.50;;;;;;5055541;28;20035;-39
2021/10/31 10:16:11;;;;;;;13.63;10.63;;;17.10;73.70;;;;;;5055524;28;20503;-38
2021/10/31 10:18:37;;;;;;;13.27;10.73;;;17.10;73.50;;;;;;5054134;28;20096;-37
2021/10/31 10:21:17;;;;;;;14.90;11.50;;;17.10;73.10;;;;;;5055461;28;20499;-38
2021/10/31 10:23:57;;;;;;;15.18;11.73;;;17.00;73.50;;;;;;5055184;28;20025;-38
2021/10/31 10:26:28;;;;;;;15.07;11.73;;;16.90;73.10;;;;;;5055237;28;20079;-38
2021/10/31 10:29:01;;;;;;;15.27;11.38;;;16.80;74.40;;;;;;5054003;28;20028;-38
2021/10/31 10:31:28;;;;;;;16.13;11.43;;;16.80;75.20;;;;;;5054970;28;20060;-38
2021/10/31 10:33:53;;;;;;;14.02;11.30;;;16.80;75.00;;;;;;5053855;28;20044;-38
2021/10/31 10:36:19;;;;;;;12.80;9.95;;;16.80;74.70;;;;;;5055067;28;20025;-38
2021/10/31 10:39:06;;;;;;;15.98;11.90;;;16.80;75.50;;;;;;5055098;28;20033;-38
2021/10/31 10:41:40;;;;;;;;;;;16.70;75.50;;;;;;5055423;28;20380;-38
2021/10/31 10:44:24;;;;;;;13.75;10.63;;;16.70;76.70;;;;;;5054976;28;19912;-37
2021/10/31 10:46:56;;;;;;;19.80;11.93;;;16.70;76.00;;;;;;5053675;28;20029;-38
2021/10/31 10:49:24;;;;;;;12.25;9.75;;;16.80;76.10;;;;;;5054841;28;20468;-38
2021/10/31 10:52:08;;;;;;;14.43;11.70;;;16.80;76.60;;;;;;5054818;28;20456;-37
2021/10/31 10:54:34;;;;;;;16.88;12.35;;;16.70;76.80;;;;;;5053613;28;20032;-38
2021/10/31 10:57:03;;;;;;;16.33;12.02;;;16.70;77.30;;;;;;5054622;28;20029;-38
2021/10/31 10:59:29;;;;;;;17.40;12.07;;;16.80;78.50;;;;;;5054705;28;20021;-38
2021/10/31 11:02:07;;;;;;;15.07;11.25;;;16.80;78.20;;;;;;5053475;28;20033;-37
2021/10/31 11:04:35;;;;;;;14.48;10.65;;;16.80;78.90;;;;;;5054461;28;20108;-38
2021/10/31 11:07:01;;;;;;;14.75;10.77;;;16.80;78.20;;;;;;5054624;28;20529;-38
2021/10/31 11:09:35;;;;;;;14.25;11.13;;;16.80;79.10;;;;;;5054420;28;20060;-38
2021/10/31 11:12:20;;;;;;;17.70;10.98;;;16.80;79.00;;;;;;5053554;28;20063;-38
2021/10/31 11:14:46;;;;;;;15.73;12.30;;;16.80;79.30;;;;;;5054407;28;20028;-38
2021/10/31 11:17:12;;;;;;;14.30;11.43;;;16.80;79.20;;;;;;5053145;28;20511;-38
2021/10/31 11:19:38;;;;;;;15.10;11.77;;;16.80;78.70;;;;;;5065373;28;20430;-38
2021/10/31 11:22:04;;;;;;;20.52;14.65;;;16.80;78.30;;;;;;5074061;28;20072;-38
2021/10/31 11:24:29;;;;;;;41.65;30.35;;;16.80;78.60;;;;;;5073870;28;20032;-38
2021/10/31 11:26:55;;;;;;;29.83;19.88;;;16.80;79.70;;;;;;5074004;28;20070;-37
2021/10/31 11:29:20;;;;;;;21.35;14.65;;;16.80;79.20;;;;;;5074028;28;20083;-38
2021/10/31 11:31:46;;;;;;;20.30;14.65;;;16.90;78.50;;;;;;5072629;28;20053;-38
2021/10/31 11:34:12;;;;;;;16.83;12.80;;;16.90;78.40;;;;;;5074135;28;20028;-38
2021/10/31 11:36:37;;;;;;;17.38;12.32;;;17.00;77.90;;;;;;5073770;28;20016;-38
2021/10/31 11:39:03;;;;;;;17.30;13.00;;;17.00;77.50;;;;;;5074038;28;20100;-38
2021/10/31 11:41:32;;;;;;;18.00;13.30;;;17.00;76.40;;;;;;5073884;28;20235;-37
2021/10/31 11:43:58;;;;;;;20.38;13.38;;;17.00;75.90;;;;;;5073935;28;20036;-38
2021/10/31 11:46:42;;;;;;;15.32;12.43;;;17.00;75.50;;;;;;5073716;28;20021;-37
2021/10/31 11:49:09;;;;;;;19.30;13.25;;;17.00;75.70;;;;;;5073688;28;20419;-38
2021/10/31 11:51:41;;;;;;;17.55;12.05;;;17.10;75.90;;;;;;5073616;28;20505;-38
2021/10/31 11:54:06;;;;;;;17.45;12.15;;;17.10;75.50;;;;;;5073825;28;20410;-38
2021/10/31 11:56:37;;;;;;;14.48;11.48;;;17.10;75.00;;;;;;5073512;28;20032;-37
2021/10/31 11:59:16;;;;;;;14.80;10.88;;;17.10;75.30;;;;;;5073632;28;20141;-37
2021/10/31 12:01:50;;;;;;;19.63;12.73;;;17.10;73.90;;;;;;5068213;28;20096;-38
2021/10/31 12:07:42;;;;;;;16.05;11.70;;;17.10;75.20;;;;;;5054512;28;20021;-38
2021/10/31 12:10:28;;;;;;;17.13;11.57;;;17.00;74.70;;;;;;5053347;28;20509;-38
2021/10/31 12:13:15;;;;;;;14.55;10.80;;;17.10;75.50;;;;;;5053284;28;20044;-38
2021/10/31 12:16:01;;;;;;;14.60;10.70;;;17.10;75.40;;;;;;5062322;28;20033;-38
2021/10/31 12:18:49;;;;;;;13.77;10.20;;;17.10;75.80;;;;;;5072230;28;20052;-38
2021/10/31 12:21:23;;;;;;;15.82;12.00;;;17.20;75.30;;;;;;5073125;28;20024;-37
2021/10/31 12:24:05;;;;;;;17.88;12.65;;;17.20;75.30;;;;;;5070943;28;20025;-38
2021/10/31 12:26:37;;;;;;;14.52;11.50;;;17.10;76.40;;;;;;5071199;28;20518;-39
2021/10/31 12:29:27;;;;;;;14.70;11.63;;;17.10;76.90;;;;;;5071410;28;20085;-38
2021/10/31 12:32:19;;;;;;;14.40;11.23;;;17.10;76.90;;;;;;5058788;28;20071;-38
2021/10/31 12:34:54;;;;;;;14.25;10.82;;;17.10;77.40;;;;;;5072960;28;20020;-37
2021/10/31 12:37:23;;;;;;;11.82;9.82;;;17.10;78.10;;;;;;5059840;28;20052;-40
2021/10/31 12:39:50;;;;;;;16.02;11.40;;;17.10;77.80;;;;;;5052893;28;20532;-38
2021/10/31 12:42:27;;;;;;;12.52;10.45;;;17.20;77.80;;;;;;5051631;28;20040;-38